Goianorte, Brazil
Current Conditions -  °F | °C
As of 6:00 AM on Saturday 20 Dec 2014 (Local Time) from SBPJ Reporting Station
Scattered Clouds Scattered Clouds  
Wind Chill: 75°   Ceiling: Unl
Heat Index: 75°   Visibility: 6mi
Dew Point: 72°   Wind: 0mph
Humidity: 89%   Direction: NA
Pressure: 29.88"   Gusts: NA
Location:  8.59°S, 48.94°W
Report Text: SBPJ 200900Z 00000KT 9999 FEW012 SCT080 24/22 Q1012
Loading
Personal Weather Stations






























Interactive Weather Map New forecast layout! Learn more

10-Day Weather Forecast

Advertisements
Track Severe Weather on mobile